Time;durP1;ratioP1;P1;durP2;ratioP2;P2;SDS_P1;SDS_P2;PMS_P1;PMS_P2;Temp;Humidity;BMP_temperature;BMP_pressure;BME280_temperature;BME280_humidity;BME280_pressure;Samples;Min_cycle;Max_cycle;Signal;HPM_P1;HPM_P2
2022/11/07 00:00:58;;;;;;;20.88;10.93;;;;;;;15.29;100.00;100366.66;5049888;28;20025;-66
2022/11/07 00:03:24;;;;;;;18.92;10.98;;;;;;;15.10;100.00;100340.16;5049927;28;20031;-67
2022/11/07 00:05:49;;;;;;;18.15;10.82;;;;;;;15.24;100.00;100370.31;5050101;28;20446;-67
2022/11/07 00:08:16;;;;;;;23.10;10.98;;;;;;;15.07;100.00;100345.41;5048497;28;20033;-66
2022/11/07 00:10:42;;;;;;;18.02;9.60;;;;;;;15.40;100.00;100408.06;5049784;28;20438;-67
2022/11/07 00:13:07;;;;;;;19.17;9.68;;;;;;;15.46;100.00;100409.56;5050112;28;20029;-66
2022/11/07 00:15:32;;;;;;;19.90;9.82;;;;;;;15.31;100.00;100394.81;5049989;28;20037;-66
2022/11/07 00:17:58;;;;;;;19.30;9.40;;;;;;;15.34;100.00;100397.22;5050270;28;20107;-69
2022/11/07 00:20:23;;;;;;;19.33;9.48;;;;;;;15.31;100.00;100397.38;5050112;28;20601;-67
2022/11/07 00:22:49;;;;;;;18.58;9.55;;;;;;;14.98;100.00;100342.34;5049984;28;20488;-70
2022/11/07 00:25:14;;;;;;;20.48;9.13;;;;;;;15.36;100.00;100403.13;5048864;28;20029;-66
2022/11/07 00:27:40;;;;;;;14.55;8.52;;;;;;;15.39;100.00;100403.00;5049732;28;20477;-67
2022/11/07 00:30:05;;;;;;;16.02;8.52;;;;;;;15.34;100.00;100398.06;5049596;28;20029;-67
2022/11/07 00:32:31;;;;;;;15.40;8.45;;;;;;;15.34;100.00;100395.50;5050142;28;20033;-66
2022/11/07 00:34:56;;;;;;;17.02;8.27;;;;;;;15.40;100.00;100405.50;5050175;28;20082;-67
2022/11/07 00:37:22;;;;;;;15.68;8.00;;;;;;;15.43;100.00;100415.66;5049728;28;20041;-67
2022/11/07 00:39:47;;;;;;;14.38;7.68;;;;;;;15.52;100.00;100425.53;5049920;28;20021;-66
2022/11/07 00:42:13;;;;;;;19.98;7.63;;;;;;;15.53;100.00;100422.06;5049645;28;20029;-67
2022/11/07 00:44:38;;;;;;;15.52;8.48;;;;;;;14.85;100.00;100315.59;5049683;28;20029;-68
2022/11/07 00:47:03;;;;;;;18.48;8.30;;;;;;;15.45;100.00;100424.09;5049782;28;20071;-67
2022/11/07 00:49:29;;;;;;;16.70;8.75;;;;;;;15.46;100.00;100422.38;5050012;28;20033;-67
2022/11/07 00:51:54;;;;;;;13.05;7.82;;;;;;;15.01;100.00;100340.53;5051623;28;20033;-67
2022/11/07 00:54:20;;;;;;;16.60;8.43;;;;;;;15.32;100.00;100406.69;5054012;28;20453;-67
2022/11/07 00:56:45;;;;;;;20.00;9.07;;;;;;;15.09;100.00;100368.38;5053814;28;20476;-67
2022/11/07 00:59:11;;;;;;;16.27;8.90;;;;;;;15.06;100.00;100365.94;5053813;28;20079;-67
2022/11/07 01:01:37;;;;;;;15.48;8.68;;;;;;;15.21;100.00;100394.31;5051921;28;20496;-67
2022/11/07 01:06:47;;;;;;;14.88;8.32;;;;;;;15.18;100.00;100394.44;5053424;28;20035;-66
2022/11/07 01:09:17;;;;;;;22.90;9.32;;;;;;;14.98;100.00;100365.41;5052841;28;20052;-67
2022/11/07 01:11:43;;;;;;;15.20;8.90;;;;;;;15.02;100.00;100361.81;5051685;28;20087;-66
2022/11/07 01:14:10;;;;;;;13.13;8.20;;;;;;;15.07;100.00;100404.31;5053426;28;20068;-67
2022/11/07 01:16:37;;;;;;;16.70;8.93;;;;;;;14.53;100.00;100310.00;5051954;28;20025;-67
2022/11/07 01:19:04;;;;;;;14.80;8.77;;;;;;;14.97;100.00;100407.28;5053130;28;20033;-67
2022/11/07 01:21:29;;;;;;;15.27;8.40;;;;;;;14.56;100.00;100342.31;5052893;28;20106;-67
2022/11/07 01:23:55;;;;;;;17.10;8.85;;;;;;;14.99;100.00;100413.16;5053428;28;20123;-67
2022/11/07 01:26:20;;;;;;;19.15;9.10;;;;;;;14.82;100.00;100406.13;5051803;28;20025;-68
2022/11/07 01:28:46;;;;;;;17.50;8.90;;;;;;;14.80;100.00;100397.69;5053191;28;20028;-67
2022/11/07 01:31:13;;;;;;;17.02;8.95;;;;;;;14.14;100.00;100328.56;5053342;28;20492;-67
2022/11/07 01:33:39;;;;;;;15.18;8.90;;;;;;;14.62;100.00;100412.00;5052825;28;20032;-67
2022/11/07 01:36:11;;;;;;;20.38;9.23;;;;;;;13.92;100.00;100282.50;5052930;28;20033;-67
2022/11/07 01:38:39;;;;;;;20.52;9.13;;;;;;;13.94;100.00;100322.44;5051095;28;20067;-67
2022/11/07 01:41:25;;;;;;;14.60;9.13;;;;;;;14.15;100.00;100361.72;5051401;28;20480;-67
2022/11/07 01:43:51;;;;;;;20.80;9.18;;;;;;;14.45;100.00;100406.69;5052695;28;20487;-67
2022/11/07 01:46:17;;;;;;;16.42;9.05;;;;;;;14.26;100.00;100392.03;5051343;28;20082;-67
2022/11/07 01:49:21;;;;;;;16.85;9.02;;;;;;;14.06;100.00;100387.66;5052426;28;20033;-67
2022/11/07 01:52:04;;;;;;;16.98;8.85;;;;;;;13.85;100.00;100343.22;5052701;28;20081;-67
2022/11/07 01:54:38;;;;;;;16.38;9.60;;;;;;;13.84;100.00;100361.16;5053161;28;20032;-66
2022/11/07 01:57:12;;;;;;;17.17;9.30;;;;;;;14.03;100.00;100385.19;5052654;28;20032;-66
2022/11/07 01:59:39;;;;;;;20.20;10.02;;;;;;;13.69;100.00;100344.63;5052092;28;20040;-67
2022/11/07 02:02:07;;;;;;;17.67;9.73;;;;;;;13.59;100.00;100317.75;5051974;28;20476;-66
2022/11/07 02:04:32;;;;;;;17.92;10.07;;;;;;;13.81;100.00;100374.88;5051778;28;20431;-67
2022/11/07 02:07:24;;;;;;;18.67;10.30;;;;;;;13.85;100.00;100393.50;5051373;28;20025;-67
2022/11/07 02:09:52;;;;;;;18.13;10.35;;;;;;;13.82;100.00;100391.91;5051561;28;20052;-67
2022/11/07 02:12:18;;;;;;;17.63;10.55;;;;;;;13.85;100.00;100383.28;5052366;28;20098;-67
2022/11/07 02:14:44;;;;;;;18.77;10.52;;;;;;;13.72;100.00;100398.22;5051979;28;20511;-66
2022/11/07 02:17:13;;;;;;;21.98;11.95;;;;;;;13.57;100.00;100388.50;5052257;28;20111;-67
2022/11/07 02:19:44;;;;;;;21.40;11.82;;;;;;;13.51;100.00;100388.69;5052018;28;20028;-68
2022/11/07 02:22:38;;;;;;;20.60;12.02;;;;;;;13.53;100.00;100407.34;5050474;28;20025;-67
2022/11/07 02:25:11;;;;;;;21.83;12.20;;;;;;;13.18;100.00;100366.81;5052174;28;20055;-66
2022/11/07 02:27:39;;;;;;;21.13;11.90;;;;;;;13.44;100.00;100396.63;5051907;28;20484;-66
2022/11/07 02:30:12;;;;;;;20.13;11.57;;;;;;;12.98;100.00;100336.81;5051574;28;20443;-66
2022/11/07 02:32:37;;;;;;;21.75;11.30;;;;;;;12.92;100.00;100334.44;5043386;28;20036;-66
2022/11/07 02:35:34;;;;;;;19.85;11.45;;;;;;;13.29;100.00;100405.59;5051436;28;20040;-66
2022/11/07 02:38:01;;;;;;;22.02;12.00;;;;;;;12.57;100.00;100334.72;5050892;28;20079;-67
2022/11/07 02:40:29;;;;;;;15.77;11.02;;;;;;;13.05;100.00;100391.91;5051585;28;20029;-66
2022/11/07 02:42:55;;;;;;;18.63;11.80;;;;;;;13.10;100.00;100386.66;5051984;28;20029;-67
2022/11/07 02:45:27;;;;;;;20.67;11.38;;;;;;;12.87;100.00;100361.00;5051473;28;20467;-66
2022/11/07 02:47:52;;;;;;;;;;;;;;;13.05;100.00;100403.84;5045482;28;20048;-66
2022/11/07 02:50:18;;;;;;;17.88;11.40;;;;;;;12.59;100.00;100337.22;5051707;28;19916;-66
2022/11/07 02:52:43;;;;;;;18.77;10.95;;;;;;;12.96;100.00;100398.97;5049944;28;20056;-66
2022/11/07 02:55:11;;;;;;;17.08;11.00;;;;;;;12.41;100.00;100343.69;5051539;28;20021;-66
2022/11/07 02:57:36;;;;;;;17.35;10.32;;;;;;;12.77;100.00;100390.22;5051004;28;20482;-66
2022/11/07 03:00:03;;;;;;;17.98;10.40;;;;;;;12.27;100.00;100332.22;5051236;28;20124;-68
2022/11/07 03:02:29;;;;;;;18.63;11.20;;;;;;;12.34;100.00;100343.94;5051043;28;20021;-67
2022/11/07 03:04:54;;;;;;;15.82;10.65;;;;;;;12.85;100.00;100398.47;5051126;28;20055;-67
2022/11/07 03:07:19;;;;;;;20.52;10.93;;;;;;;12.64;100.00;100360.84;5051005;28;20029;-67
2022/11/07 03:09:45;;;;;;;18.90;10.40;;;;;;;12.79;100.00;100399.50;5050778;28;20033;-67
2022/11/07 03:12:10;;;;;;;18.10;10.77;;;;;;;12.41;100.00;100370.91;5049957;28;20480;-67
2022/11/07 03:14:36;;;;;;;22.15;10.50;;;;;;;12.13;100.00;100343.66;5048745;28;20028;-67
2022/11/07 03:17:02;;;;;;;18.27;11.05;;;;;;;12.44;100.00;100421.81;5050973;28;20025;-67
2022/11/07 03:19:27;;;;;;;19.42;12.13;;;;;;;12.42;100.00;100393.00;5050729;28;20174;-68
2022/11/07 03:21:53;;;;;;;24.08;11.82;;;;;;;12.67;100.00;100424.53;5050763;28;20112;-68
2022/11/07 03:24:18;;;;;;;21.55;11.93;;;;;;;12.38;100.00;100353.16;5050653;28;20116;-67
2022/11/07 03:26:43;;;;;;;21.92;12.00;;;;;;;12.19;100.00;100363.03;5049431;28;20025;-67
2022/11/07 03:29:09;;;;;;;21.42;12.05;;;;;;;12.42;100.00;100404.00;5048990;28;20044;-67
2022/11/07 03:31:35;;;;;;;20.58;12.55;;;;;;;12.35;100.00;100424.63;5050028;28;20400;-68
2022/11/07 03:34:00;;;;;;;23.15;12.70;;;;;;;12.36;100.00;100416.91;5047538;28;20506;-66
2022/11/07 03:36:26;;;;;;;22.83;12.52;;;;;;;12.13;100.00;100381.88;5045643;28;20029;-67
2022/11/07 03:38:51;;;;;;;19.02;11.93;;;;;;;12.32;100.00;100424.72;5050451;28;20480;-66
2022/11/07 03:41:17;;;;;;;22.13;13.18;;;;;;;12.20;100.00;100380.03;5050407;28;20061;-67
2022/11/07 03:43:46;;;;;;;24.05;13.75;;;;;;;12.14;100.00;100416.69;5050259;28;20106;-66
2022/11/07 03:46:13;;;;;;;27.35;13.57;;;;;;;12.44;100.00;100426.94;5049947;28;20029;-66
2022/11/07 03:48:39;;;;;;;18.02;13.18;;;;;;;12.44;100.00;100398.88;5050387;28;20037;-66
2022/11/07 03:51:05;;;;;;;23.20;13.77;;;;;;;12.37;100.00;100428.81;5050423;28;20043;-69
2022/11/07 03:53:31;;;;;;;17.58;11.00;;;;;;;13.75;100.00;100403.19;5049264;28;20025;-69
2022/11/07 03:55:57;;;;;;;29.83;14.23;;;;;;;13.06;100.00;100351.91;5049972;28;20396;-65
2022/11/07 03:58:23;;;;;;;25.60;14.82;;;;;;;11.79;100.00;100358.19;5050289;28;20029;-65
2022/11/07 04:00:49;;;;;;;25.42;15.10;;;;;;;12.10;100.00;100416.81;5050185;28;20032;-66
2022/11/07 04:03:15;;;;;;;26.40;15.43;;;;;;;11.50;100.00;100296.16;5049953;28;20557;-68
2022/11/07 04:05:40;;;;;;;27.50;15.35;;;;;;;11.73;100.00;100343.09;5049919;28;20033;-66
2022/11/07 04:08:06;;;;;;;45.13;29.00;;;;;;;11.63;100.00;100428.22;5049911;28;20053;-70
2022/11/07 04:10:31;;;;;;;23.60;15.73;;;;;;;11.13;100.00;100345.44;5047962;28;20077;-66
2022/11/07 04:18:26;;;;;;;23.17;13.65;;;;;;;11.88;100.00;100408.09;5033240;28;20106;-66
2022/11/07 04:20:52;;;;;;;20.23;12.93;;;;;;;11.65;100.00;100374.69;5029631;28;20399;-66
2022/11/07 04:23:17;;;;;;;20.33;13.00;;;;;;;11.87;100.00;100435.25;5040677;28;20458;-66
2022/11/07 04:28:27;;;;;;;20.73;12.93;;;;;;;11.13;100.00;100362.44;5053612;28;20533;-66
2022/11/07 04:30:52;;;;;;;22.75;13.38;;;;;;;11.18;100.00;100358.06;5048925;28;20037;-66
2022/11/07 04:33:18;;;;;;;26.02;13.75;;;;;;;11.41;100.00;100406.69;5041951;28;20412;-66
2022/11/07 04:35:43;;;;;;;18.70;12.77;;;;;;;11.45;100.00;100404.94;5042370;28;20442;-64
2022/11/07 04:38:09;;;;;;;22.63;12.85;;;;;;;11.59;100.00;100454.63;5052787;28;20025;-66
2022/11/07 04:40:34;;;;;;;26.75;12.82;;;;;;;11.84;100.00;100365.72;5053525;28;20036;-67
2022/11/07 04:42:59;;;;;;;21.90;12.65;;;;;;;11.49;100.00;100430.25;5052056;28;20450;-69
2022/11/07 04:45:25;;;;;;;23.08;13.27;;;;;;;11.18;100.00;100363.16;5052534;28;20102;-67
2022/11/07 04:47:50;;;;;;;22.95;12.73;;;;;;;11.81;100.00;100448.16;5053400;28;20396;-66
2022/11/07 04:50:18;;;;;;;27.30;12.57;;;;;;;11.47;100.00;100421.81;5053668;28;20491;-67
2022/11/07 04:52:45;;;;;;;25.92;13.35;;;;;;;11.61;100.00;100441.84;5053455;28;20032;-67
2022/11/07 04:55:20;;;;;;;20.02;13.27;;;;;;;11.46;100.00;100449.88;5052406;28;20439;-68
2022/11/07 04:57:46;;;;;;;26.35;14.27;;;;;;;11.29;100.00;100407.81;5053828;28;20028;-67
2022/11/07 05:00:12;;;;;;;24.92;13.50;;;;;;;11.00;100.00;100409.38;5053241;28;20025;-67
2022/11/07 05:02:37;;;;;;;19.30;13.50;;;;;;;11.72;100.00;100461.13;5053318;28;20523;-68
2022/11/07 05:05:03;;;;;;;26.23;14.60;;;;;;;11.07;100.00;100405.84;5053286;28;20062;-68
2022/11/07 05:07:28;;;;;;;32.60;18.27;;;;;;;11.16;100.00;100390.34;5050745;28;20060;-69
2022/11/07 05:09:54;;;;;;;36.53;19.65;;;;;;;11.32;100.00;100407.78;5052406;28;20029;-69
2022/11/07 05:12:19;;;;;;;37.13;19.45;;;;;;;10.96;100.00;100389.97;5052900;28;20025;-70
2022/11/07 05:14:45;;;;;;;35.13;18.85;;;;;;;11.50;100.00;100464.19;5053452;28;20426;-68
2022/11/07 05:17:14;;;;;;;40.63;18.52;;;;;;;11.50;100.00;100467.59;5052837;28;20029;-67
2022/11/07 05:19:42;;;;;;;31.63;17.27;;;;;;;11.46;100.00;100444.78;5051482;28;20021;-70
2022/11/07 05:24:53;;;;;;;31.95;16.70;;;;;;;11.68;100.00;100479.91;5052938;28;20048;-72
2022/11/07 05:27:20;;;;;;;34.88;15.98;;;;;;;11.95;100.00;100486.84;5052844;28;20419;-71
2022/11/07 05:29:46;;;;;;;33.28;16.55;;;;;;;12.67;100.00;100478.97;5053653;28;20033;-69
2022/11/07 05:32:12;;;;;;;30.40;15.50;;;;;;;11.59;100.00;100410.50;5053254;28;20036;-72
2022/11/07 05:34:37;;;;;;;28.52;15.43;;;;;;;11.62;100.00;100375.63;5051014;28;20025;-67
2022/11/07 05:37:07;;;;;;;43.35;16.58;;;;;;;11.83;100.00;100443.84;5051380;28;20384;-65
2022/11/07 05:39:32;;;;;;;29.35;15.40;;;;;;;12.25;100.00;100504.78;5043765;28;20289;-64
2022/11/07 05:42:00;;;;;;;30.23;16.70;;;;;;;12.27;100.00;100492.81;5051949;28;20037;-66
2022/11/07 05:44:25;;;;;;;31.15;16.55;;;;;;;12.12;100.00;100473.69;5052511;28;20036;-66
2022/11/07 05:46:50;;;;;;;28.80;15.43;;;;;;;12.36;100.00;100507.91;5050182;28;20025;-66
2022/11/07 05:49:16;;;;;;;24.23;15.43;;;;;;;12.49;100.00;100529.63;5050272;28;20132;-65
2022/11/07 05:51:42;;;;;;;25.83;15.48;;;;;;;12.06;100.00;100459.38;5051822;28;20056;-66
2022/11/07 05:54:07;;;;;;;28.23;15.90;;;;;;;12.46;100.00;100517.78;5050598;28;20143;-66
2022/11/07 05:56:33;;;;;;;27.20;17.38;;;;;;;11.94;100.00;100439.31;5051922;28;20071;-66
2022/11/07 05:58:58;;;;;;;27.45;16.85;;;;;;;12.28;100.00;100514.91;5052426;28;20028;-66
2022/11/07 06:01:24;;;;;;;28.52;16.67;;;;;;;12.61;100.00;100537.78;5050329;28;20052;-67
2022/11/07 06:03:49;;;;;;;25.10;16.05;;;;;;;12.55;100.00;100481.84;5051081;28;20029;-66
2022/11/07 06:06:15;;;;;;;26.23;15.63;;;;;;;13.11;100.00;100540.66;5050194;28;20033;-67
2022/11/07 06:08:40;;;;;;;27.00;18.02;;;;;;;13.00;100.00;100548.59;5051160;28;20482;-67
2022/11/07 06:11:06;;;;;;;30.23;18.20;;;;;;;12.63;100.00;100481.63;5051302;28;20036;-67
2022/11/07 06:13:31;;;;;;;29.55;18.25;;;;;;;12.96;100.00;100509.56;5051573;28;20442;-66
2022/11/07 06:15:57;;;;;;;35.80;22.15;;;;;;;13.25;100.00;100569.19;5051391;28;20025;-66
2022/11/07 06:18:22;;;;;;;31.42;20.50;;;;;;;13.19;100.00;100508.09;5050128;28;20479;-67
2022/11/07 06:20:48;;;;;;;37.08;21.08;;;;;;;13.68;100.00;100569.56;5052160;28;20033;-67
2022/11/07 06:23:14;;;;;;;21.50;13.02;;;;;;;13.26;100.00;100486.56;5051810;28;20025;-67
2022/11/07 06:25:40;;;;;;;24.58;13.68;;;;;;;14.01;100.00;100580.41;5051933;28;20537;-66
2022/11/07 06:28:10;;;;;;;28.15;13.23;;;;;;;13.28;100.00;100505.25;5049472;28;20056;-66
2022/11/07 06:30:36;;;;;;;28.85;13.25;;;;;;;13.45;100.00;100528.56;5052041;28;20056;-67
2022/11/07 06:33:04;;;;;;;24.10;13.10;;;;;;;13.99;100.00;100529.34;5051449;28;20044;-67
2022/11/07 06:35:30;;;;;;;21.80;11.68;;;;;;;13.96;100.00;100574.63;5051703;28;20037;-66
2022/11/07 06:37:56;;;;;;;23.45;12.57;;;;;;;14.00;100.00;100596.66;5051549;28;20029;-67
2022/11/07 06:40:21;;;;;;;23.85;12.60;;;;;;;14.27;100.00;100593.19;5051407;28;20037;-66
2022/11/07 06:42:47;;;;;;;19.35;10.98;;;;;;;13.91;100.00;100490.41;5050253;28;20447;-66
2022/11/07 06:45:12;;;;;;;21.63;11.25;;;;;;;14.95;100.00;100530.25;5050954;28;20029;-66
2022/11/07 06:47:38;;;;;;;22.00;11.35;;;;;;;15.47;100.00;100609.41;5049231;28;20701;-66
2022/11/07 06:50:04;;;;;;;21.58;10.70;;;;;;;15.21;100.00;100560.00;5050939;28;20068;-66
2022/11/07 06:52:29;;;;;;;20.67;11.13;;;;;;;15.39;100.00;100620.81;5051130;28;20108;-67
2022/11/07 06:54:54;;;;;;;18.92;10.93;;;;;;;15.27;100.00;100611.81;5051245;28;20515;-67
2022/11/07 06:57:20;;;;;;;22.98;10.13;;;;;;;14.67;100.00;100614.88;5051014;28;20051;-67
2022/11/07 06:59:45;;;;;;;17.65;10.30;;;;;;;15.11;100.00;100615.88;5051030;28;20111;-67
2022/11/07 07:02:12;;;;;;;19.05;9.88;;;;;;;15.03;100.00;100617.88;5050753;28;20547;-67
2022/11/07 07:04:38;;;;;;;17.42;9.85;;;;;;;14.92;100.00;100571.31;5051571;28;20096;-69
2022/11/07 07:07:03;;;;;;;16.25;9.85;;;;;;;14.90;100.00;100616.63;5051114;28;20119;-66
2022/11/07 07:09:29;;;;;;;19.77;10.43;;;;;;;15.43;100.00;100635.22;5049465;28;20122;-67
2022/11/07 07:11:54;;;;;;;21.30;10.55;;;;;;;15.36;100.00;100621.75;5050637;28;20103;-67
2022/11/07 07:14:20;;;;;;;20.95;11.35;;;;;;;14.93;100.00;100557.63;5050804;28;20526;-67
2022/11/07 07:16:45;;;;;;;19.38;10.45;;;;;;;15.24;100.00;100617.09;5050682;28;20025;-67
2022/11/07 07:19:11;;;;;;;17.38;9.88;;;;;;;15.30;100.00;100621.13;5049332;28;20531;-67
2022/11/07 07:21:37;;;;;;;19.85;9.95;;;;;;;15.30;100.00;100567.34;5050453;28;20411;-66
2022/11/07 07:24:03;;;;;;;18.50;10.00;;;;;;;15.15;100.00;100576.41;5050572;28;20029;-67
2022/11/07 07:26:28;;;;;;;18.23;10.10;;;;;;;15.55;100.00;100571.50;5050730;28;20032;-67
2022/11/07 07:28:54;;;;;;;19.67;10.23;;;;;;;15.52;100.00;100594.69;5049221;28;20029;-67
2022/11/07 07:31:23;;;;;;;16.85;10.07;;;;;;;15.80;100.00;100619.25;5050242;28;20472;-67
2022/11/07 07:33:49;;;;;;;17.48;9.18;;;;;;;15.70;100.00;100625.63;5050886;28;20060;-67
2022/11/07 07:36:16;;;;;;;15.27;9.32;;;;;;;16.01;100.00;100624.38;5050432;28;20059;-67
2022/11/07 07:38:42;;;;;;;15.45;9.43;;;;;;;15.75;100.00;100622.00;5049166;28;20029;-67
2022/11/07 07:41:07;;;;;;;15.70;9.07;;;;;;;15.79;100.00;100643.22;5050454;28;20498;-66
2022/11/07 07:43:33;;;;;;;14.77;8.73;;;;;;;16.23;100.00;100625.19;5050040;28;20037;-67
2022/11/07 07:46:06;;;;;;;14.40;8.65;;;;;;;15.50;100.00;100611.00;5048556;28;20055;-69
2022/11/07 07:48:32;;;;;;;13.63;8.73;;;;;;;15.42;100.00;100631.81;5049088;28;20119;-67
2022/11/07 07:50:58;;;;;;;13.10;8.55;;;;;;;15.70;100.00;100626.47;5049075;28;20538;-67
2022/11/07 07:53:23;;;;;;;16.60;9.05;;;;;;;15.67;100.00;100643.72;5050404;28;20040;-67
2022/11/07 07:55:49;;;;;;;15.45;9.27;;;;;;;15.22;100.00;100600.09;5050093;28;20506;-66
2022/11/07 07:58:15;;;;;;;15.95;9.20;;;;;;;15.36;100.00;100601.25;5050162;28;20480;-67
2022/11/07 08:00:41;;;;;;;18.23;8.90;;;;;;;15.70;100.00;100625.63;5049896;28;20040;-67
2022/11/07 08:03:09;;;;;;;16.73;9.32;;;;;;;15.17;100.00;100586.63;5048681;28;20025;-67
2022/11/07 08:05:36;;;;;;;16.08;10.07;;;;;;;14.98;100.00;100530.13;5049880;28;20061;-67
2022/11/07 08:08:03;;;;;;;16.83;10.25;;;;;;;15.46;100.00;100599.22;5049722;28;20049;-67
2022/11/07 08:10:29;;;;;;;18.63;10.60;;;;;;;16.04;100.00;100638.81;5049763;28;20049;-67
2022/11/07 08:12:55;;;;;;;18.77;10.13;;;;;;;16.08;100.00;100609.59;5049647;28;20048;-67
2022/11/07 08:15:21;;;;;;;17.23;9.52;;;;;;;15.69;100.00;100549.63;5048699;28;20032;-67
2022/11/07 08:17:47;;;;;;;17.25;10.07;;;;;;;16.17;100.00;100612.59;5049980;28;20029;-66
2022/11/07 08:20:15;;;;;;;14.80;10.13;;;;;;;15.88;100.00;100581.31;5048276;28;20517;-67
2022/11/07 08:22:41;;;;;;;19.20;10.50;;;;;;;16.75;100.00;100643.59;5048568;28;20427;-66
2022/11/07 08:25:08;;;;;;;17.60;10.23;;;;;;;16.50;100.00;100602.69;5048446;28;20028;-67
2022/11/07 08:27:34;;;;;;;18.25;10.68;;;;;;;16.18;100.00;100575.78;5049555;28;20029;-67
2022/11/07 08:30:00;;;;;;;16.30;10.75;;;;;;;16.16;100.00;100581.88;5049825;28;20576;-66
2022/11/07 08:32:27;;;;;;;18.60;10.55;;;;;;;16.99;100.00;100632.25;5049759;28;20029;-66
2022/11/07 08:34:52;;;;;;;20.27;11.27;;;;;;;16.81;100.00;100625.34;5048343;28;20502;-66
2022/11/07 08:37:18;;;;;;;17.60;11.00;;;;;;;16.70;100.00;100623.22;5049893;28;20029;-66
2022/11/07 08:39:44;;;;;;;17.67;10.55;;;;;;;16.86;100.00;100641.38;5049810;28;20103;-67
2022/11/07 08:42:09;;;;;;;17.38;10.35;;;;;;;16.86;100.00;100637.09;5049405;28;20669;-67
2022/11/07 08:44:35;;;;;;;17.65;10.95;;;;;;;16.35;100.00;100550.25;5049775;28;20021;-66
2022/11/07 08:47:04;;;;;;;18.92;10.50;;;;;;;16.92;100.00;100639.38;5049166;28;20036;-66
2022/11/07 08:49:30;;;;;;;16.80;9.95;;;;;;;17.15;100.00;100635.81;5049428;28;20097;-66
2022/11/07 08:51:55;;;;;;;16.95;10.32;;;;;;;17.20;100.00;100645.00;5049503;28;20029;-66
2022/11/07 08:54:21;;;;;;;18.13;10.57;;;;;;;17.13;100.00;100640.19;5049166;28;20029;-67
2022/11/07 08:56:47;;;;;;;16.77;10.23;;;;;;;16.59;100.00;100637.44;5049454;28;20025;-67
2022/11/07 08:59:13;;;;;;;16.02;10.13;;;;;;;16.94;100.00;100647.88;5049475;28;20500;-66
2022/11/07 09:01:39;;;;;;;17.70;9.70;;;;;;;16.84;100.00;100633.75;5048176;28;20025;-66
2022/11/07 09:04:04;;;;;;;17.73;10.25;;;;;;;16.86;100.00;100575.44;5048175;28;20031;-66
2022/11/07 09:06:31;;;;;;;25.33;12.45;;;;;;;17.05;100.00;100632.00;5048332;28;20356;-67
2022/11/07 09:08:58;;;;;;;20.00;10.25;;;;;;;17.08;100.00;100640.38;5047881;28;20053;-67
2022/11/07 09:11:24;;;;;;;18.77;9.65;;;;;;;16.46;100.00;100595.97;5049659;28;20037;-67
2022/11/07 09:13:50;;;;;;;12.90;9.05;;;;;;;16.76;100.00;100633.25;5053533;28;20028;-66
2022/11/07 09:16:16;;;;;;;17.58;9.60;;;;;;;16.92;100.00;100635.97;5051944;28;20510;-66
2022/11/07 09:18:43;;;;;;;19.75;10.80;;;;;;;16.58;100.00;100574.16;5053138;28;20037;-66
2022/11/07 09:21:09;;;;;;;17.42;10.40;;;;;;;17.25;100.00;100639.66;5051568;28;20047;-66
2022/11/07 09:23:35;;;;;;;16.83;10.25;;;;;;;17.45;100.00;100637.00;5053294;28;20036;-66
2022/11/07 09:26:00;;;;;;;19.98;10.30;;;;;;;17.85;100.00;100633.44;5052797;28;20468;-66
2022/11/07 09:28:26;;;;;;;15.85;10.02;;;;;;;17.58;100.00;100607.28;5051575;28;20522;-67
2022/11/07 09:30:56;;;;;;;16.10;9.40;;;;;;;17.73;100.00;100622.00;5051729;28;20466;-66
2022/11/07 09:33:22;;;;;;;14.25;9.02;;;;;;;17.43;100.00;100627.72;5052899;28;20480;-67
2022/11/07 09:35:48;;;;;;;21.02;9.55;;;;;;;17.92;100.00;100611.69;5052771;28;20029;-66
2022/11/07 09:38:14;;;;;;;15.38;9.18;;;;;;;17.78;100.00;100602.06;5050995;28;20509;-66
2022/11/07 09:40:46;;;;;;;15.38;9.27;;;;;;;17.81;100.00;100621.63;5051416;28;20025;-66
2022/11/07 09:43:41;;;;;;;17.48;9.38;;;;;;;17.29;100.00;100613.72;5052754;28;20067;-66
2022/11/07 09:46:27;;;;;;;16.05;8.93;;;;;;;17.42;100.00;100606.31;5052741;28;20128;-66
2022/11/07 09:49:14;;;;;;;14.82;9.63;;;;;;;17.50;100.00;100578.53;5052349;28;20025;-66
2022/11/07 09:51:44;;;;;;;15.32;9.82;;;;;;;17.66;100.00;100547.78;5052229;28;20041;-66
2022/11/07 09:54:16;;;;;;;20.17;9.90;;;;;;;17.78;100.00;100590.91;5050952;28;20480;-66
2022/11/07 09:56:42;;;;;;;13.70;9.35;;;;;;;17.88;100.00;100610.16;5052465;28;20025;-66
2022/11/07 09:59:19;;;;;;;14.57;9.07;;;;;;;17.96;100.00;100587.47;5052385;28;20063;-67
2022/11/07 10:01:45;;;;;;;16.48;9.90;;;;;;;17.92;100.00;100601.38;5052435;28;20032;-65
2022/11/07 10:04:16;;;;;;;14.15;9.82;;;;;;;17.75;100.00;100530.16;5052537;28;20029;-65
2022/11/07 10:07:08;;;;;;;15.60;9.70;;;;;;;18.43;100.00;100604.00;5052290;28;20063;-66
2022/11/07 10:10:05;;;;;;;17.35;9.90;;;;;;;18.54;100.00;100601.72;5052036;28;20045;-66
2022/11/07 10:12:56;;;;;;;17.27;9.88;;;;;;;18.24;100.00;100587.78;5052140;28;20053;-65
2022/11/07 10:15:42;;;;;;;14.87;10.53;;;;;;;17.93;100.00;100544.69;5052518;28;20033;-67
2022/11/07 10:18:20;;;;;;;16.23;9.52;;;;;;;18.31;100.00;100599.44;5050298;28;20287;-66
2022/11/07 10:21:08;;;;;;;17.02;9.65;;;;;;;17.85;100.00;100603.41;5052018;28;20066;-68
2022/11/07 10:24:11;;;;;;;14.77;10.10;;;;;;;17.69;100.00;100593.94;5048479;28;20045;-66
2022/11/07 10:26:40;;;;;;;15.60;10.20;;;;;;;18.40;100.00;100590.44;5051753;28;20103;-65
2022/11/07 10:29:17;;;;;;;14.45;9.45;;;;;;;18.58;100.00;100550.91;5050418;28;20124;-66
2022/11/07 10:32:04;;;;;;;14.23;9.52;;;;;;;18.64;100.00;100586.66;5050156;28;20029;-66
2022/11/07 10:34:35;;;;;;;15.10;8.82;;;;;;;18.54;100.00;100588.84;5050500;28;20407;-66
2022/11/07 10:37:00;;;;;;;16.40;9.30;;;;;;;18.58;100.00;100556.88;5050242;28;20079;-66
2022/11/07 10:39:29;;;;;;;12.73;8.90;;;;;;;17.97;100.00;100511.94;5051816;28;20065;-66
2022/11/07 10:42:12;;;;;;;15.60;9.25;;;;;;;18.44;100.00;100574.75;5051777;28;20037;-66
2022/11/07 10:44:40;;;;;;;16.98;10.15;;;;;;;18.02;100.00;100510.81;5051844;28;20029;-67
2022/11/07 10:47:15;;;;;;;18.90;9.82;;;;;;;18.29;100.00;100574.66;5051539;28;20039;-67
2022/11/07 10:49:58;;;;;;;18.30;10.95;;;;;;;18.25;100.00;100563.69;5051331;28;20581;-66
2022/11/07 10:52:25;;;;;;;18.77;9.35;;;;;;;18.75;100.00;100572.31;5050250;28;20067;-66
2022/11/07 10:54:51;;;;;;;13.35;9.07;;;;;;;18.81;100.00;100571.97;5051423;28;20052;-66
2022/11/07 10:57:19;;;;;;;15.13;9.52;;;;;;;19.17;100.00;100561.47;5049923;28;20491;-66
2022/11/07 10:59:50;;;;;;;14.85;9.23;;;;;;;19.17;100.00;100555.47;5050784;28;20474;-67
2022/11/07 11:02:20;;;;;;;18.70;11.93;;;;;;;19.48;100.00;100573.53;5051174;28;20025;-66
2022/11/07 11:04:55;;;;;;;19.08;11.30;;;;;;;19.03;100.00;100575.06;5049737;28;20487;-66
2022/11/07 11:07:24;;;;;;;15.13;9.68;;;;;;;18.00;100.00;100516.94;5051171;28;20408;-66
2022/11/07 11:09:53;;;;;;;20.13;10.20;;;;;;;19.45;100.00;100560.84;5050837;28;20483;-66
2022/11/07 11:12:31;;;;;;;14.48;9.60;;;;;;;19.17;100.00;100570.94;5049556;28;20075;-67
2022/11/07 11:15:02;;;;;;;14.40;9.82;;;;;;;18.63;100.00;100572.09;5049843;28;20032;-66
2022/11/07 11:17:29;;;;;;;13.77;9.57;;;;;;;18.78;100.00;100540.38;5050987;28;20032;-65
2022/11/07 11:19:55;;;;;;;17.92;10.02;;;;;;;18.53;100.00;100543.41;5050602;28;20059;-65
2022/11/07 11:22:23;;;;;;;14.68;9.88;;;;;;;18.80;100.00;100538.53;5050694;28;20064;-65